Time;durP1;ratioP1;P1;durP2;ratioP2;P2;SDS_P1;SDS_P2;PMS_P1;PMS_P2;Temp;Humidity;BMP_temperature;BMP_pressure;BME280_temperature;BME280_humidity;BME280_pressure;Samples;Min_cycle;Max_cycle;Signal;HPM_P1;HPM_P2
2022/02/12 00:00:06;;;;;;;2.90;2.00;;;0.90;97.30;;;;;;5032686;28;20188;-79
2022/02/12 00:02:32;;;;;;;4.43;2.20;;;0.80;97.30;;;;;;5031779;28;20196;-80
2022/02/12 00:04:58;;;;;;;3.00;1.77;;;0.70;97.30;;;;;;5033085;28;20441;-79
2022/02/12 00:07:23;;;;;;;5.37;1.97;;;0.70;97.30;;;;;;5031813;28;20181;-79
2022/02/12 00:09:49;;;;;;;4.10;2.17;;;0.70;97.30;;;;;;5031840;28;20259;-79
2022/02/12 00:12:14;;;;;;;7.30;2.43;;;0.60;97.30;;;;;;5032963;28;20196;-79
2022/02/12 00:14:40;;;;;;;5.50;1.97;;;0.50;97.30;;;;;;5032105;28;20215;-79
2022/02/12 00:17:06;;;;;;;5.07;2.20;;;0.50;97.30;;;;;;5031600;28;20560;-78
2022/02/12 00:19:31;;;;;;;14.70;2.30;;;0.40;97.30;;;;;;5031984;28;20563;-78
2022/02/12 00:21:57;;;;;;;11.50;3.50;;;0.40;97.30;;;;;;5031608;28;20208;-79
2022/02/12 00:24:22;;;;;;;6.53;2.20;;;0.40;97.30;;;;;;5031534;28;20180;-79
2022/02/12 00:26:48;;;;;;;13.43;4.83;;;0.40;97.30;;;;;;5033105;28;20689;-79
2022/02/12 00:29:13;;;;;;;8.00;2.50;;;0.40;97.30;;;;;;5031536;28;20261;-78
2022/02/12 00:31:39;;;;;;;9.50;2.50;;;0.40;97.30;;;;;;5031454;28;20222;-79
2022/02/12 00:34:04;;;;;;;7.73;2.80;;;0.30;97.30;;;;;;5031350;28;20428;-79
2022/02/12 00:36:30;;;;;;;4.40;2.00;;;0.40;97.30;;;;;;5031533;28;20181;-79
2022/02/12 00:38:55;;;;;;;16.03;3.20;;;0.30;97.30;;;;;;5031317;28;20189;-79
2022/02/12 00:41:21;;;;;;;9.17;2.73;;;0.30;97.30;;;;;;5031374;28;20187;-79
2022/02/12 00:43:47;;;;;;;5.83;2.50;;;0.30;97.30;;;;;;5031215;28;20180;-79
2022/02/12 00:46:12;;;;;;;11.70;3.10;;;0.30;97.30;;;;;;5031400;28;20189;-79
2022/02/12 00:48:38;;;;;;;3.10;2.30;;;0.20;97.30;;;;;;5030583;28;20215;-79
2022/02/12 00:51:03;;;;;;;5.73;2.23;;;0.10;97.30;;;;;;5032166;28;20646;-79
2022/02/12 00:53:29;;;;;;;8.90;2.60;;;0.00;97.30;;;;;;5030609;28;20226;-79
2022/02/12 00:55:56;;;;;;;3.97;2.00;;;-0.20;97.30;;;;;;5030569;28;20234;-79
2022/02/12 00:58:21;;;;;;;8.77;2.20;;;-0.30;97.30;;;;;;5031196;28;20187;-78
2022/02/12 01:00:47;;;;;;;6.17;2.30;;;-0.30;97.30;;;;;;5032450;28;20502;-80
2022/02/12 01:03:13;;;;;;;7.70;2.80;;;-0.30;97.30;;;;;;5031981;28;20192;-78
2022/02/12 01:05:39;;;;;;;4.27;2.27;;;-0.30;97.30;;;;;;5027148;28;20447;-80
2022/02/12 01:08:06;;;;;;;11.30;3.07;;;-0.30;97.30;;;;;;5024980;28;20818;-79
2022/02/12 01:10:33;;;;;;;4.70;2.30;;;-0.30;97.30;;;;;;5030104;28;20554;-79
2022/02/12 01:12:59;;;;;;;4.70;2.37;;;-0.30;97.30;;;;;;5030105;28;20496;-79
2022/02/12 01:15:25;;;;;;;5.53;2.60;;;-0.30;97.30;;;;;;5030637;28;20415;-79
2022/02/12 01:17:51;;;;;;;7.77;3.13;;;-0.30;97.30;;;;;;5030575;28;20422;-79
2022/02/12 01:20:17;;;;;;;4.57;2.30;;;-0.30;97.30;;;;;;5030123;28;20237;-79
2022/02/12 01:22:42;;;;;;;10.73;3.17;;;-0.30;97.30;;;;;;5030569;28;20582;-79
2022/02/12 01:25:09;;;;;;;8.07;2.67;;;-0.30;97.30;;;;;;5030165;28;20422;-79
2022/02/12 01:27:37;;;;;;;3.37;1.90;;;-0.30;97.30;;;;;;5032020;28;20352;-78
2022/02/12 01:30:05;;;;;;;10.33;2.63;;;-0.30;97.30;;;;;;5030269;28;20760;-79
2022/02/12 01:32:30;;;;;;;7.57;3.13;;;-0.30;97.30;;;;;;5030558;28;20473;-79
2022/02/12 01:34:56;;;;;;;7.20;2.83;;;-0.30;97.30;;;;;;5030544;28;20513;-79
2022/02/12 01:37:23;;;;;;;3.90;2.67;;;-0.40;97.30;;;;;;5032631;28;20171;-80
2022/02/12 01:39:50;;;;;;;6.50;3.20;;;-0.40;97.30;;;;;;5032671;28;20188;-79
2022/02/12 01:42:16;;;;;;;14.83;2.77;;;-0.40;97.30;;;;;;5032182;28;20454;-79
2022/02/12 01:44:42;;;;;;;3.87;2.33;;;-0.50;97.30;;;;;;5032867;28;20429;-79
2022/02/12 01:47:09;;;;;;;14.03;3.20;;;-0.50;97.30;;;;;;5032271;28;20925;-80
2022/02/12 01:49:35;;;;;;;11.37;3.27;;;-0.60;97.30;;;;;;5032162;28;20898;-79
2022/02/12 01:52:03;;;;;;;6.70;3.93;;;-0.60;97.30;;;;;;5032844;28;20435;-79
2022/02/12 01:54:29;;;;;;;9.53;3.07;;;-0.60;97.30;;;;;;5031445;28;20421;-79
2022/02/12 01:56:56;;;;;;;5.43;2.60;;;-0.60;97.30;;;;;;5031402;28;20416;-80
2022/02/12 01:59:24;;;;;;;6.17;2.80;;;-0.70;97.30;;;;;;5030948;28;20654;-80
2022/02/12 02:01:49;;;;;;;8.37;2.80;;;-0.80;97.30;;;;;;5031261;28;20446;-80
2022/02/12 02:04:16;;;;;;;7.50;3.00;;;-0.80;97.30;;;;;;5031288;28;20415;-80
2022/02/12 02:06:43;;;;;;;7.10;2.60;;;-0.70;97.30;;;;;;5029875;28;20176;-80
2022/02/12 02:09:09;;;;;;;9.57;3.80;;;-0.70;97.30;;;;;;5029525;28;20558;-80
2022/02/12 02:11:36;;;;;;;5.13;2.40;;;-0.70;97.30;;;;;;5030494;28;20439;-79
2022/02/12 02:14:03;;;;;;;14.13;2.60;;;-0.70;97.30;;;;;;5031812;28;20447;-80
2022/02/12 02:16:29;;;;;;;14.97;2.80;;;-0.70;97.30;;;;;;5030154;28;20620;-80
2022/02/12 02:18:54;;;;;;;4.47;2.10;;;-0.60;97.30;;;;;;5030330;28;20423;-79
2022/02/12 02:21:23;;;;;;;10.77;2.83;;;-0.60;97.30;;;;;;5030464;28;20411;-80
2022/02/12 02:23:50;;;;;;;15.43;2.00;;;-0.60;97.30;;;;;;5029755;28;20218;-79
2022/02/12 02:26:16;;;;;;;8.90;2.40;;;-0.60;97.30;;;;;;5030185;28;20426;-78
2022/02/12 02:28:42;;;;;;;5.60;2.30;;;-0.60;97.30;;;;;;5029928;28;20463;-80
2022/02/12 02:31:07;;;;;;;6.03;2.47;;;-0.60;97.30;;;;;;5031794;28;20175;-79
2022/02/12 02:33:33;;;;;;;5.57;2.43;;;-0.70;97.30;;;;;;5030075;28;20773;-79
2022/02/12 02:35:59;;;;;;;6.67;2.43;;;-0.70;97.30;;;;;;5030010;28;20204;-79
2022/02/12 02:38:24;;;;;;;10.50;2.33;;;-0.70;97.30;;;;;;5029975;28;20184;-79
2022/02/12 02:40:53;;;;;;;13.40;2.50;;;-0.70;97.30;;;;;;5029801;28;20186;-80
2022/02/12 02:43:19;;;;;;;3.97;1.90;;;-0.70;97.30;;;;;;5029593;28;20204;-80
2022/02/12 02:45:44;;;;;;;5.80;2.47;;;-0.70;97.30;;;;;;5029703;28;20422;-80
2022/02/12 02:48:10;;;;;;;10.90;2.47;;;-0.70;97.30;;;;;;5030347;28;20336;-80
2022/02/12 02:56:10;;;;;;;3.87;2.40;;;-0.70;97.30;;;;;;5031588;28;20437;-79
2022/02/12 02:58:50;;;;;;;5.20;2.50;;;-0.70;97.30;;;;;;5030204;28;20891;-80
2022/02/12 03:01:15;;;;;;;15.67;2.60;;;-0.70;97.30;;;;;;5029581;28;21007;-79
2022/02/12 03:03:42;;;;;;;4.47;2.00;;;-0.80;97.30;;;;;;5029894;28;20448;-79
2022/02/12 03:06:10;;;;;;;11.23;3.90;;;-0.80;97.30;;;;;;5031426;28;20199;-80
2022/02/12 03:08:37;;;;;;;8.00;2.57;;;-0.90;97.30;;;;;;5031211;28;20558;-80
2022/02/12 03:11:04;;;;;;;6.43;2.30;;;-0.90;97.30;;;;;;5030542;28;20451;-80
2022/02/12 03:13:30;;;;;;;5.20;2.10;;;-0.90;97.30;;;;;;5032896;28;20793;-80
2022/02/12 03:15:56;;;;;;;18.30;2.40;;;-1.00;97.30;;;;;;5034819;28;20419;-81
2022/02/12 03:18:22;;;;;;;3.10;2.20;;;-1.00;97.30;;;;;;5033723;28;20268;-79
2022/02/12 03:20:47;;;;;;;8.27;2.47;;;-1.00;97.30;;;;;;5034531;28;20421;-79
2022/02/12 03:23:13;;;;;;;5.30;2.20;;;-1.10;97.30;;;;;;5033456;28;20493;-79
2022/02/12 03:25:39;;;;;;;6.23;2.30;;;-1.10;97.30;;;;;;5035668;28;20579;-79
2022/02/12 03:28:05;;;;;;;8.20;2.50;;;-1.10;97.30;;;;;;5035985;28;20203;-79
2022/02/12 03:30:34;;;;;;;9.27;3.00;;;-1.20;97.30;;;;;;5034502;28;20180;-80
2022/02/12 03:33:00;;;;;;;9.10;2.70;;;-1.20;97.30;;;;;;5033412;28;20527;-79
2022/02/12 03:35:29;;;;;;;4.80;2.03;;;-1.30;97.30;;;;;;5032926;28;20427;-80
2022/02/12 03:38:06;;;;;;;5.80;2.00;;;-1.30;97.30;;;;;;5032930;28;20427;-79
2022/02/12 03:40:32;;;;;;;6.20;2.50;;;-1.30;97.30;;;;;;5033237;28;20747;-79
2022/02/12 03:42:57;;;;;;;6.63;2.20;;;-1.30;97.30;;;;;;5033935;28;20427;-80
2022/02/12 03:45:23;;;;;;;2.87;2.37;;;-1.30;97.30;;;;;;5034195;28;20406;-79
2022/02/12 03:47:50;;;;;;;6.40;2.60;;;-1.40;97.30;;;;;;5033651;28;20176;-79
2022/02/12 03:50:16;;;;;;;5.30;2.33;;;-1.40;97.30;;;;;;5032869;28;20601;-79
2022/02/12 03:52:42;;;;;;;8.10;3.50;;;-1.40;97.30;;;;;;5032851;28;20435;-79
2022/02/12 03:55:08;;;;;;;7.70;2.43;;;-1.40;97.30;;;;;;5033300;28;20442;-79
2022/02/12 03:57:37;;;;;;;9.70;2.70;;;-1.40;97.30;;;;;;5034481;28;20403;-79
2022/02/12 04:00:13;;;;;;;4.00;2.50;;;-1.40;97.30;;;;;;5032663;28;20420;-79
2022/02/12 04:02:40;;;;;;;6.37;3.03;;;-1.50;97.30;;;;;;5034272;28;20453;-79
2022/02/12 04:05:07;;;;;;;3.63;2.10;;;-1.50;97.30;;;;;;5032486;28;20881;-80
2022/02/12 04:07:32;;;;;;;3.30;2.03;;;-1.50;97.30;;;;;;5033328;28;20427;-79
2022/02/12 04:09:58;;;;;;;3.70;2.20;;;-1.50;97.30;;;;;;5032707;28;21008;-79
2022/02/12 04:12:23;;;;;;;4.53;2.20;;;-1.50;97.30;;;;;;5034206;28;20263;-79
2022/02/12 04:14:49;;;;;;;8.47;2.40;;;-1.50;97.30;;;;;;5032492;28;20168;-78
2022/02/12 04:17:15;;;;;;;5.80;2.10;;;-1.50;97.30;;;;;;5033121;28;20176;-79
2022/02/12 04:19:40;;;;;;;4.50;2.33;;;-1.50;97.30;;;;;;5033310;28;20291;-79
2022/02/12 04:22:06;;;;;;;8.67;2.77;;;-1.50;97.30;;;;;;5032722;28;20726;-79
2022/02/12 04:24:32;;;;;;;13.40;2.80;;;-1.50;97.30;;;;;;5031635;28;20648;-79
2022/02/12 04:26:57;;;;;;;5.13;2.30;;;-1.60;97.30;;;;;;5032798;28;20734;-79
2022/02/12 04:29:23;;;;;;;9.13;2.30;;;-1.60;97.30;;;;;;5032481;28;20192;-78
2022/02/12 04:31:48;;;;;;;11.70;3.50;;;-1.60;97.30;;;;;;5032784;28;20216;-79
2022/02/12 04:34:14;;;;;;;9.93;2.87;;;-1.60;97.30;;;;;;5032846;28;20177;-79
2022/02/12 04:36:39;;;;;;;4.67;2.53;;;-1.70;97.30;;;;;;5032515;28;20183;-79
2022/02/12 04:39:05;;;;;;;7.60;2.13;;;-1.70;97.30;;;;;;5033198;28;20215;-79
2022/02/12 04:41:31;;;;;;;3.37;1.83;;;-1.70;97.30;;;;;;5032194;28;20184;-79
2022/02/12 04:43:56;;;;;;;7.97;2.80;;;-1.70;97.30;;;;;;5032300;28;20172;-79
2022/02/12 04:46:22;;;;;;;3.40;1.97;;;-1.70;97.30;;;;;;5033597;28;20176;-79
2022/02/12 04:48:49;;;;;;;7.83;2.00;;;-1.70;97.30;;;;;;5032892;28;20208;-79
2022/02/12 04:51:18;;;;;;;11.70;2.20;;;-1.70;97.30;;;;;;5032586;28;20173;-79
2022/02/12 04:53:44;;;;;;;4.83;2.90;;;-1.70;97.30;;;;;;5032682;28;20855;-79
2022/02/12 04:56:10;;;;;;;6.20;2.40;;;-1.80;97.30;;;;;;5032601;28;20613;-79
2022/02/12 04:58:36;;;;;;;9.47;2.70;;;-1.80;97.30;;;;;;5032484;28;20427;-79
2022/02/12 05:01:01;;;;;;;7.93;2.50;;;-1.80;97.30;;;;;;5032832;28;20195;-79
2022/02/12 05:03:27;;;;;;;4.50;2.77;;;-1.80;97.30;;;;;;5033960;28;20341;-80
2022/02/12 05:05:52;;;;;;;5.53;3.13;;;-1.90;97.30;;;;;;5033869;28;20176;-79
2022/02/12 05:08:18;;;;;;;11.50;3.27;;;-1.90;97.30;;;;;;5032507;28;20197;-79
2022/02/12 05:10:43;;;;;;;12.07;2.57;;;-1.90;97.30;;;;;;5032541;28;20480;-79
2022/02/12 05:13:09;;;;;;;3.30;2.83;;;-1.90;97.30;;;;;;5032179;28;20207;-79
2022/02/12 05:15:35;;;;;;;3.00;2.10;;;-1.90;97.30;;;;;;5032164;28;20213;-79
2022/02/12 05:18:00;;;;;;;9.07;2.50;;;-1.90;97.30;;;;;;5031851;28;20176;-78
2022/02/12 05:20:26;;;;;;;9.70;2.80;;;-1.90;97.30;;;;;;5033440;28;20465;-79
2022/02/12 05:22:52;;;;;;;5.83;2.30;;;-1.90;97.30;;;;;;5032075;28;20710;-79
2022/02/12 05:25:17;;;;;;;6.43;2.37;;;-2.00;97.30;;;;;;5031854;28;20203;-79
2022/02/12 05:27:43;;;;;;;4.90;2.60;;;-2.00;97.30;;;;;;5033119;28;20259;-79
2022/02/12 05:30:09;;;;;;;5.87;2.97;;;-2.00;97.30;;;;;;5032183;28;20239;-79
2022/02/12 05:32:34;;;;;;;6.60;2.87;;;-2.00;97.30;;;;;;5031757;28;20246;-79
2022/02/12 05:35:00;;;;;;;10.50;2.60;;;-2.10;97.30;;;;;;5031114;28;20522;-79
2022/02/12 05:37:25;;;;;;;7.60;2.87;;;-2.10;97.30;;;;;;5031595;28;20185;-79
2022/02/12 05:39:51;;;;;;;8.13;2.50;;;-2.10;97.30;;;;;;5032073;28;20215;-79
2022/02/12 05:42:17;;;;;;;5.47;2.27;;;-2.10;97.30;;;;;;5031406;28;20262;-79
2022/02/12 05:44:42;;;;;;;3.60;2.80;;;-2.10;97.30;;;;;;5031291;28;20176;-79
2022/02/12 05:47:08;;;;;;;4.10;2.30;;;-2.20;97.30;;;;;;5031514;28;20184;-79
2022/02/12 05:49:33;;;;;;;6.80;2.30;;;-2.20;97.30;;;;;;5031134;28;20244;-79
2022/02/12 05:51:59;;;;;;;5.63;2.10;;;-2.20;97.30;;;;;;5032040;28;20565;-79
2022/02/12 05:54:25;;;;;;;8.23;2.20;;;-2.20;97.30;;;;;;5031814;28;20219;-79
2022/02/12 05:56:51;;;;;;;2.90;2.40;;;-2.20;97.30;;;;;;5031293;28;20708;-79
2022/02/12 05:59:18;;;;;;;4.60;1.93;;;-2.20;97.30;;;;;;5029894;28;20420;-79
2022/02/12 06:01:47;;;;;;;8.60;2.97;;;-2.20;97.30;;;;;;5031165;28;20196;-79
2022/02/12 06:04:13;;;;;;;5.83;3.13;;;-2.30;97.30;;;;;;5032516;28;20419;-78
2022/02/12 06:06:38;;;;;;;4.90;2.70;;;-2.30;97.30;;;;;;5032544;28;20860;-78
2022/02/12 06:09:04;;;;;;;6.30;3.07;;;-2.30;97.30;;;;;;5032687;28;20200;-79
2022/02/12 06:11:29;;;;;;;10.33;3.20;;;-2.40;97.30;;;;;;5032824;28;20214;-79
2022/02/12 06:13:55;;;;;;;4.50;3.00;;;-2.40;97.30;;;;;;5032267;28;20555;-79
2022/02/12 06:16:22;;;;;;;11.53;2.97;;;-2.40;97.30;;;;;;5030028;28;20565;-79
2022/02/12 06:18:48;;;;;;;7.10;3.00;;;-2.40;97.30;;;;;;5030327;28;20180;-79
2022/02/12 06:21:14;;;;;;;6.23;2.70;;;-2.40;97.30;;;;;;5030294;28;20407;-79
2022/02/12 06:23:40;;;;;;;3.10;2.10;;;-2.40;97.30;;;;;;5030360;28;20457;-80
2022/02/12 06:26:06;;;;;;;9.07;3.10;;;-2.40;97.30;;;;;;5031603;28;20913;-79
2022/02/12 06:28:32;;;;;;;4.57;2.73;;;-2.50;97.30;;;;;;5032068;28;20454;-79
2022/02/12 06:31:01;;;;;;;16.53;3.60;;;-2.50;97.30;;;;;;5030051;28;20589;-79
2022/02/12 06:33:27;;;;;;;6.63;2.70;;;-2.50;97.30;;;;;;5029859;28;20518;-79
2022/02/12 06:35:53;;;;;;;8.80;2.37;;;-2.50;97.30;;;;;;5029746;28;20917;-79
2022/02/12 06:38:18;;;;;;;5.20;2.73;;;-2.50;97.30;;;;;;5030259;28;20422;-79
2022/02/12 06:40:45;;;;;;;6.67;3.73;;;-2.50;97.30;;;;;;5030829;28;20196;-79
2022/02/12 06:43:10;;;;;;;2.53;2.37;;;-2.50;97.30;;;;;;5030446;28;20204;-79
2022/02/12 06:45:37;;;;;;;9.83;3.40;;;-2.50;97.30;;;;;;5030447;28;20940;-79
2022/02/12 06:48:03;;;;;;;4.73;3.03;;;-2.50;97.30;;;;;;5033412;28;20771;-79
2022/02/12 06:50:29;;;;;;;14.63;4.20;;;-2.50;97.30;;;;;;5035172;28;20781;-79
2022/02/12 06:52:54;;;;;;;5.80;3.33;;;-2.50;97.30;;;;;;5033602;28;20431;-79
2022/02/12 06:55:20;;;;;;;8.10;3.40;;;-2.50;97.30;;;;;;5033891;28;20426;-79
2022/02/12 06:57:45;;;;;;;5.70;3.67;;;-2.50;97.30;;;;;;5033928;28;20176;-79
2022/02/12 07:00:12;;;;;;;5.63;3.13;;;-2.50;97.30;;;;;;5034091;28;20211;-79
2022/02/12 07:02:37;;;;;;;13.03;3.60;;;-2.50;97.30;;;;;;5035182;28;20408;-80
2022/02/12 07:05:04;;;;;;;13.13;3.67;;;-2.50;97.30;;;;;;5033840;28;20415;-79
2022/02/12 07:07:30;;;;;;;13.23;4.53;;;-2.50;97.30;;;;;;5034210;28;20415;-79
2022/02/12 07:09:56;;;;;;;19.27;5.17;;;-2.50;97.30;;;;;;5035386;28;20558;-78
2022/02/12 07:12:21;;;;;;;18.43;6.90;;;-2.40;97.30;;;;;;5035772;28;21064;-79
2022/02/12 07:14:47;;;;;;;13.10;5.20;;;-2.40;97.30;;;;;;5034476;28;20223;-79
2022/02/12 07:17:13;;;;;;;16.43;5.60;;;-2.30;97.30;;;;;;5047287;28;20180;-79
2022/02/12 07:19:38;;;;;;;19.10;6.50;;;-2.30;97.30;;;;;;5049888;28;20215;-79
2022/02/12 07:22:04;;;;;;;35.57;8.67;;;-2.20;97.30;;;;;;5037961;28;20496;-79
2022/02/12 07:24:30;;;;;;;20.50;5.80;;;-2.20;97.30;;;;;;5046517;28;20184;-79
2022/02/12 07:26:55;;;;;;;15.47;4.70;;;-2.10;97.30;;;;;;5037221;28;20445;-78
2022/02/12 07:29:21;;;;;;;12.37;4.80;;;-2.10;97.30;;;;;;5036331;28;20276;-79
2022/02/12 07:31:47;;;;;;;16.10;5.37;;;-2.10;97.30;;;;;;5037658;28;20192;-79
2022/02/12 07:34:15;;;;;;;20.20;6.20;;;-2.00;97.30;;;;;;5036434;28;20173;-78
2022/02/12 07:36:41;;;;;;;10.80;5.53;;;-1.90;97.30;;;;;;5037060;28;20338;-80
2022/02/12 07:39:06;;;;;;;15.07;5.97;;;-1.90;97.30;;;;;;5035993;28;20430;-78
2022/02/12 07:41:34;;;;;;;8.37;4.20;;;-1.80;97.30;;;;;;5017139;28;20913;-79
2022/02/12 07:44:00;;;;;;;7.83;4.23;;;-1.70;97.30;;;;;;5022218;28;20192;-78
2022/02/12 07:46:26;;;;;;;9.77;4.07;;;-1.60;97.30;;;;;;5015353;28;20430;-78
2022/02/12 07:48:51;;;;;;;15.93;4.50;;;-1.50;97.30;;;;;;5012767;28;20463;-79
2022/02/12 07:51:17;;;;;;;9.67;4.80;;;-1.40;97.30;;;;;;5013915;28;20185;-79
2022/02/12 07:53:42;;;;;;;9.10;4.03;;;-1.30;97.30;;;;;;5030977;28;20188;-79
2022/02/12 07:56:08;;;;;;;9.23;3.77;;;-1.20;97.30;;;;;;5016872;28;20723;-79
2022/02/12 07:58:34;;;;;;;8.00;4.00;;;-1.00;97.30;;;;;;5023141;28;20541;-79
2022/02/12 08:00:59;;;;;;;14.47;4.30;;;-0.90;97.30;;;;;;5031962;28;20472;-79
2022/02/12 08:03:25;;;;;;;15.20;4.80;;;-0.80;97.30;;;;;;5031558;28;20225;-79
2022/02/12 08:05:51;;;;;;;14.10;4.90;;;-0.70;97.30;;;;;;5032860;28;20184;-79
2022/02/12 08:08:16;;;;;;;10.17;5.00;;;-0.60;97.30;;;;;;5031483;28;20208;-79
2022/02/12 08:13:26;;;;;;;13.50;4.27;;;-0.40;97.30;;;;;;5033063;28;20254;-79
2022/02/12 08:15:52;;;;;;;8.20;4.10;;;-0.30;97.30;;;;;;5034242;28;20419;-79
2022/02/12 08:18:17;;;;;;;13.80;3.87;;;-0.20;97.30;;;;;;5048687;28;20415;-79
2022/02/12 08:20:43;;;;;;;15.17;5.60;;;-0.10;97.30;;;;;;5037752;28;20183;-79
2022/02/12 08:23:09;;;;;;;8.10;3.90;;;0.00;97.30;;;;;;5048693;28;20200;-79
2022/02/12 08:25:35;;;;;;;10.10;3.53;;;0.20;97.30;;;;;;5033264;28;20800;-79
2022/02/12 08:28:01;;;;;;;13.37;5.07;;;0.30;97.30;;;;;;5033769;28;20515;-79
2022/02/12 08:30:27;;;;;;;14.23;4.60;;;0.40;97.30;;;;;;5025393;28;20934;-79
2022/02/12 08:32:52;;;;;;;10.97;4.10;;;0.60;97.30;;;;;;5026667;28;20243;-80
2022/02/12 08:35:18;;;;;;;17.93;4.07;;;0.70;97.30;;;;;;5027771;28;20178;-79
2022/02/12 08:37:45;;;;;;;9.27;3.80;;;0.90;97.30;;;;;;5032778;28;20273;-80
2022/02/12 08:40:18;;;;;;;8.47;4.27;;;0.90;97.30;;;;;;5031276;28;20521;-79
2022/02/12 08:42:44;;;;;;;9.63;4.63;;;1.00;97.30;;;;;;5034395;28;20467;-79
2022/02/12 08:45:10;;;;;;;6.97;3.73;;;1.10;97.30;;;;;;5033712;28;20976;-79
2022/02/12 08:47:36;;;;;;;17.80;5.30;;;1.20;97.30;;;;;;5034791;28;20442;-79
2022/02/12 08:50:03;;;;;;;12.30;4.20;;;1.30;97.30;;;;;;5033702;28;20287;-79
2022/02/12 08:52:29;;;;;;;8.80;4.23;;;1.40;97.30;;;;;;5033949;28;20462;-80
2022/02/12 08:54:55;;;;;;;9.90;3.90;;;1.50;97.30;;;;;;5033207;28;20971;-79
2022/02/12 08:57:20;;;;;;;6.03;3.50;;;1.60;97.30;;;;;;5033597;28;20176;-80
2022/02/12 08:59:46;;;;;;;10.93;4.40;;;1.70;97.30;;;;;;5026589;28;20503;-80
2022/02/12 09:02:12;;;;;;;8.97;3.80;;;1.90;97.30;;;;;;5036754;28;20254;-80
2022/02/12 09:04:39;;;;;;;10.33;4.23;;;2.00;97.30;;;;;;5030697;28;20228;-79
2022/02/12 09:07:05;;;;;;;9.83;3.90;;;2.20;97.30;;;;;;5026601;28;20427;-79
2022/02/12 09:09:31;;;;;;;15.93;4.87;;;2.30;97.30;;;;;;5027459;28;20483;-80
2022/02/12 09:11:57;;;;;;;8.33;3.60;;;2.40;97.30;;;;;;5030218;28;20500;-79
2022/02/12 09:14:23;;;;;;;7.77;2.93;;;2.50;97.30;;;;;;5030720;28;20241;-80
2022/02/12 09:16:49;;;;;;;6.77;2.70;;;2.60;97.30;;;;;;5030496;28;20510;-80
2022/02/12 09:19:15;;;;;;;7.43;3.07;;;2.70;97.30;;;;;;5030542;28;20654;-80
2022/02/12 09:21:40;;;;;;;10.97;2.50;;;2.80;97.30;;;;;;5030532;28;20203;-80
2022/02/12 09:24:06;;;;;;;6.90;2.80;;;3.00;97.30;;;;;;5031916;28;20181;-80
2022/02/12 09:26:32;;;;;;;8.30;2.27;;;3.10;97.30;;;;;;5030570;28;20191;-80
2022/02/12 09:29:03;;;;;;;7.73;2.20;;;3.10;97.30;;;;;;5031038;28;20579;-79
2022/02/12 09:31:29;;;;;;;2.90;2.27;;;3.20;97.30;;;;;;5031832;28;20909;-79
2022/02/12 09:33:54;;;;;;;7.50;2.20;;;3.40;97.30;;;;;;5030215;28;20425;-80
2022/02/12 09:36:20;;;;;;;7.07;2.37;;;3.40;97.30;;;;;;5031671;28;20419;-79
2022/02/12 09:38:46;;;;;;;6.63;2.87;;;3.50;97.30;;;;;;5031549;28;20226;-80
2022/02/12 09:41:14;;;;;;;7.20;2.40;;;3.60;97.30;;;;;;5030343;28;20450;-80
2022/02/12 09:43:41;;;;;;;7.50;2.33;;;3.70;97.30;;;;;;5030442;28;20187;-80
2022/02/12 09:46:25;;;;;;;7.33;2.27;;;3.70;97.30;;;;;;5032223;28;20430;-79
2022/02/12 09:48:51;;;;;;;4.20;1.70;;;3.90;97.30;;;;;;5031495;28;20987;-80
2022/02/12 09:51:18;;;;;;;4.40;2.33;;;3.90;97.30;;;;;;5030074;28;20430;-79
2022/02/12 09:53:43;;;;;;;4.70;2.23;;;3.90;97.30;;;;;;5029783;28;20280;-79
2022/02/12 09:56:09;;;;;;;7.33;2.30;;;3.90;97.30;;;;;;5030074;28;20506;-79
2022/02/12 09:58:35;;;;;;;5.80;2.33;;;3.80;97.30;;;;;;5031430;28;20613;-79
2022/02/12 10:01:01;;;;;;;8.30;2.23;;;3.80;97.30;;;;;;5031547;28;20238;-79
2022/02/12 10:03:26;;;;;;;6.97;2.10;;;3.90;97.30;;;;;;5033218;28;20239;-80
2022/02/12 10:05:53;;;;;;;9.77;2.37;;;3.90;97.30;;;;;;5032740;28;20184;-79
2022/02/12 10:08:21;;;;;;;7.03;2.00;;;3.90;97.30;;;;;;5030419;28;20176;-79
2022/02/12 10:10:48;;;;;;;5.27;2.67;;;4.10;97.30;;;;;;5030180;28;20581;-79
2022/02/12 10:13:30;;;;;;;6.80;2.20;;;4.30;97.30;;;;;;5030269;28;20488;-79
2022/02/12 10:16:02;;;;;;;2.93;1.90;;;4.30;97.30;;;;;;5031489;28;20521;-79
2022/02/12 10:18:30;;;;;;;9.30;1.90;;;4.40;97.30;;;;;;5029739;28;20438;-79
2022/02/12 10:20:56;;;;;;;10.27;2.20;;;4.50;97.30;;;;;;5030395;28;20434;-79
2022/02/12 10:23:23;;;;;;;6.73;2.27;;;4.60;97.30;;;;;;5033901;28;20821;-79
2022/02/12 10:26:09;;;;;;;8.20;2.73;;;4.70;97.30;;;;;;5034110;28;20430;-79
2022/02/12 10:28:40;;;;;;;8.83;2.10;;;4.80;97.30;;;;;;5033924;28;20463;-79
2022/02/12 10:31:06;;;;;;;6.63;2.03;;;4.80;97.30;;;;;;5033362;28;20438;-79
2022/02/12 10:33:40;;;;;;;5.40;1.93;;;4.80;96.40;;;;;;5033369;28;20454;-79
2022/02/12 10:36:05;;;;;;;3.50;1.80;;;4.90;96.50;;;;;;5033240;28;20454;-79
2022/02/12 10:38:36;;;;;;;4.43;1.80;;;4.90;96.00;;;;;;5033525;28;20824;-79
2022/02/12 10:41:12;;;;;;;6.67;1.90;;;4.90;94.70;;;;;;5035240;28;20199;-79
2022/02/12 10:43:40;;;;;;;2.40;1.63;;;4.90;94.70;;;;;;5035067;28;20445;-79
2022/02/12 10:46:06;;;;;;;6.10;1.60;;;5.00;95.10;;;;;;5034784;28;20813;-79
2022/02/12 10:48:37;;;;;;;7.77;1.87;;;5.10;94.60;;;;;;5036371;28;20462;-78
2022/02/12 10:51:14;;;;;;;4.00;1.50;;;5.10;92.90;;;;;;5034243;28;20861;-79
2022/02/12 10:54:06;;;;;;;2.93;1.70;;;5.20;93.50;;;;;;5033526;28;20423;-79
2022/02/12 10:56:47;;;;;;;7.90;1.77;;;5.40;94.90;;;;;;5033510;28;20411;-80
2022/02/12 10:59:15;;;;;;;2.87;1.60;;;5.50;93.10;;;;;;5034596;28;20414;-79
2022/02/12 11:01:41;;;;;;;3.73;1.93;;;5.40;92.60;;;;;;5032935;28;20924;-79
2022/02/12 11:04:10;;;;;;;5.80;1.87;;;5.60;93.10;;;;;;5033243;28;20423;-79
2022/02/12 11:06:36;;;;;;;8.23;2.10;;;5.70;93.70;;;;;;5033129;28;20419;-79
2022/02/12 11:09:03;;;;;;;4.20;2.00;;;5.80;94.00;;;;;;5034546;28;20516;-79
2022/02/12 11:11:30;;;;;;;9.10;2.03;;;5.80;92.40;;;;;;5034182;28;20419;-79
2022/02/12 11:13:58;;;;;;;7.00;2.40;;;5.70;91.70;;;;;;5033332;28;20423;-79
2022/02/12 11:16:30;;;;;;;4.40;2.30;;;5.80;92.40;;;;;;5033061;28;20425;-79
2022/02/12 11:18:57;;;;;;;4.10;1.90;;;5.90;91.80;;;;;;5032909;28;20454;-79
2022/02/12 11:21:24;;;;;;;7.77;2.43;;;6.00;92.60;;;;;;5032805;28;20423;-79
2022/02/12 11:24:00;;;;;;;3.77;1.50;;;6.10;91.50;;;;;;5034789;28;20825;-79
2022/02/12 11:26:26;;;;;;;8.37;2.13;;;6.00;89.90;;;;;;5032895;28;20410;-79
2022/02/12 11:28:52;;;;;;;3.30;1.83;;;5.90;91.60;;;;;;5033060;28;20890;-79
2022/02/12 11:31:25;;;;;;;3.47;1.30;;;6.10;92.20;;;;;;5032294;28;20427;-79
2022/02/12 11:34:17;;;;;;;2.07;1.23;;;6.30;89.00;;;;;;5031377;28;20450;-79
2022/02/12 11:36:45;;;;;;;4.20;1.60;;;6.30;87.10;;;;;;5032877;28;20411;-79
2022/02/12 11:39:13;;;;;;;3.53;1.30;;;6.10;86.80;;;;;;5035807;28;20415;-78
2022/02/12 11:41:44;;;;;;;5.63;1.40;;;6.10;88.40;;;;;;5031626;28;20865;-78
2022/02/12 11:44:10;;;;;;;5.70;1.53;;;6.10;87.40;;;;;;5033198;28;21067;-78
2022/02/12 11:47:00;;;;;;;5.80;1.87;;;6.40;89.30;;;;;;5033725;28;20420;-78
2022/02/12 11:49:41;;;;;;;3.80;1.80;;;6.50;86.90;;;;;;5033085;28;20447;-77
2022/02/12 11:52:08;;;;;;;4.90;1.70;;;6.50;85.40;;;;;;5032930;28;20485;-78
2022/02/12 11:54:57;;;;;;;5.17;1.60;;;6.60;87.10;;;;;;5038343;28;20788;-80
2022/02/12 11:57:25;;;;;;;4.47;1.10;;;6.80;85.80;;;;;;5035358;28;20497;-80
2022/02/12 12:00:11;;;;;;;2.17;1.20;;;6.80;82.60;;;;;;5038947;28;20441;-80
2022/02/12 12:02:45;;;;;;;4.57;1.23;;;6.80;81.60;;;;;;5040540;28;20439;-81
2022/02/12 12:05:20;;;;;;;2.00;1.40;;;6.90;82.50;;;;;;5034585;28;20807;-81
2022/02/12 12:08:01;;;;;;;2.30;1.23;;;6.90;82.30;;;;;;5034309;28;20415;-81
2022/02/12 12:10:35;;;;;;;2.90;1.50;;;7.00;82.70;;;;;;5036005;28;20466;-81
2022/02/12 12:13:10;;;;;;;9.23;1.20;;;6.90;82.00;;;;;;5034828;28;20435;-81
2022/02/12 12:15:36;;;;;;;2.10;1.53;;;6.70;83.00;;;;;;5038737;28;20875;-82
2022/02/12 12:18:03;;;;;;;4.10;1.40;;;6.80;83.10;;;;;;5034573;28;20411;-81
2022/02/12 12:20:34;;;;;;;7.07;1.67;;;7.00;84.10;;;;;;5034383;28;20407;-81
2022/02/12 12:23:09;;;;;;;5.87;1.47;;;7.20;82.90;;;;;;5035834;28;20435;-81
2022/02/12 12:25:54;;;;;;;2.00;1.60;;;7.30;81.60;;;;;;5034296;28;20972;-81
2022/02/12 12:31:32;;;;;;;3.57;1.50;;;7.70;81.90;;;;;;5035600;28;20465;-81
2022/02/12 12:34:06;;;;;;;3.23;1.90;;;7.80;80.80;;;;;;5034181;28;20408;-82
2022/02/12 12:36:37;;;;;;;3.00;1.47;;;7.60;80.70;;;;;;5033752;28;21002;-81
2022/02/12 12:39:09;;;;;;;3.13;1.47;;;7.50;81.70;;;;;;5033289;28;20452;-81
2022/02/12 12:41:37;;;;;;;10.00;3.60;;;7.70;82.50;;;;;;5033665;28;20443;-81
2022/02/12 12:44:10;;;;;;;3.73;1.73;;;7.80;82.20;;;;;;5034670;28;20412;-81
2022/02/12 12:46:38;;;;;;;7.13;1.87;;;7.90;81.60;;;;;;5032983;28;20963;-82
2022/02/12 12:49:04;;;;;;;4.90;2.23;;;7.80;81.60;;;;;;5032749;28;20466;-82
2022/02/12 12:51:30;;;;;;;8.00;2.90;;;7.90;81.80;;;;;;5032956;28;20514;-81
2022/02/12 12:53:58;;;;;;;10.20;2.30;;;8.10;82.40;;;;;;5034290;28;20435;-81
2022/02/12 12:56:25;;;;;;;9.40;2.27;;;8.30;82.60;;;;;;5033412;28;20177;-82
2022/02/12 12:59:23;;;;;;;2.37;1.47;;;8.50;80.60;;;;;;5033819;28;20422;-81